Time;durP1;ratioP1;P1;durP2;ratioP2;P2;SDS_P1;SDS_P2;PMS_P1;PMS_P2;Temp;Humidity;BMP_temperature;BMP_pressure;BME280_temperature;BME280_humidity;BME280_pressure;Samples;Min_cycle;Max_cycle;Signal;HPM_P1;HPM_P2
2023/06/07 00:00:54;;;;;;;0.20;0.20;;;;;;;16.13;100.00;99887.94;4971832;28;20505;-90
2023/06/07 00:03:21;;;;;;;0.13;0.13;;;;;;;16.12;100.00;99892.75;4990720;28;20490;-89
2023/06/07 00:05:47;;;;;;;2.47;0.73;;;;;;;16.16;100.00;99892.56;4964812;28;20073;-90
2023/06/07 00:08:12;;;;;;;1.15;0.25;;;;;;;16.16;100.00;99896.13;4971322;28;20122;-90
2023/06/07 00:10:38;;;;;;;0.30;0.30;;;;;;;16.19;100.00;99891.59;4967163;28;20030;-90
2023/06/07 00:13:04;;;;;;;0.68;0.68;;;;;;;16.23;100.00;99889.38;4990200;28;20077;-91
2023/06/07 00:15:30;;;;;;;0.13;0.13;;;;;;;16.29;100.00;99891.06;4973041;28;20038;-90
2023/06/07 00:18:00;;;;;;;0.80;0.80;;;;;;;16.34;100.00;99893.16;4970140;28;20096;-90
2023/06/07 00:20:30;;;;;;;2.28;0.60;;;;;;;16.37;100.00;99891.44;4964901;28;20177;-90
2023/06/07 00:22:55;;;;;;;0.40;0.40;;;;;;;16.29;100.00;99879.09;4962621;28;20035;-89
2023/06/07 00:25:24;;;;;;;1.33;1.23;;;;;;;16.35;100.00;99888.34;4989577;28;20552;-89
2023/06/07 00:27:51;;;;;;;0.20;0.20;;;;;;;16.31;100.00;99884.97;4972573;28;20042;-89
2023/06/07 00:30:17;;;;;;;0.63;0.63;;;;;;;16.32;100.00;99884.50;4990458;28;20113;-90
2023/06/07 00:32:44;;;;;;;0.82;0.70;;;;;;;16.35;100.00;99891.16;4989222;28;20129;-90
2023/06/07 00:35:12;;;;;;;0.52;0.52;;;;;;;16.34;100.00;99887.56;4971079;28;20034;-90
2023/06/07 00:37:37;;;;;;;0.57;0.45;;;;;;;16.37;100.00;99874.66;4956041;28;20104;-90
2023/06/07 00:40:05;;;;;;;1.33;0.80;;;;;;;16.36;100.00;99889.13;4969995;28;20061;-90
2023/06/07 00:42:32;;;;;;;2.10;1.08;;;;;;;16.36;100.00;99889.91;4969804;28;20034;-91
2023/06/07 00:44:57;;;;;;;1.10;0.68;;;;;;;16.30;100.00;99881.38;4979240;28;20077;-90
2023/06/07 00:47:24;;;;;;;0.70;0.70;;;;;;;16.38;100.00;99887.38;4970624;28;20046;-89
2023/06/07 00:49:50;;;;;;;0.55;0.55;;;;;;;16.40;100.00;99878.50;4970336;28;20065;-90
2023/06/07 00:52:17;;;;;;;1.38;0.95;;;;;;;16.42;100.00;99887.22;4985990;28;20399;-90
2023/06/07 00:54:43;;;;;;;0.57;0.47;;;;;;;16.42;100.00;99882.38;4959574;28;20042;-90
2023/06/07 00:57:09;;;;;;;0.65;0.50;;;;;;;16.39;100.00;99888.94;4974853;28;20047;-90
2023/06/07 00:59:35;;;;;;;0.80;0.70;;;;;;;16.43;100.00;99877.53;4975564;28;20153;-90
2023/06/07 01:02:01;;;;;;;1.10;0.80;;;;;;;16.46;100.00;99882.19;4975344;28;20510;-90
2023/06/07 01:04:29;;;;;;;0.20;0.20;;;;;;;16.40;100.00;99862.50;4999062;28;20026;-90
2023/06/07 01:06:57;;;;;;;0.82;0.77;;;;;;;16.47;100.00;99867.69;4973662;28;20387;-90
2023/06/07 01:09:23;;;;;;;0.10;0.10;;;;;;;16.49;100.00;99875.63;4990189;28;20117;-90
2023/06/07 01:11:51;;;;;;;0.20;0.20;;;;;;;16.50;100.00;99877.94;4980966;28;20045;-91
2023/06/07 01:14:18;;;;;;;0.45;0.45;;;;;;;16.51;100.00;99859.09;4993713;28;20030;-90
2023/06/07 01:16:45;;;;;;;0.75;0.65;;;;;;;16.50;100.00;99869.53;4978547;28;20018;-90
2023/06/07 01:19:21;;;;;;;0.17;0.17;;;;;;;16.50;100.00;99865.97;4989534;28;20050;-90
2023/06/07 01:21:51;;;;;;;0.32;0.32;;;;;;;16.49;100.00;99867.22;4967882;28;20486;-91
2023/06/07 01:24:18;;;;;;;0.85;0.50;;;;;;;16.47;100.00;99867.69;4973351;28;20030;-91
2023/06/07 01:26:45;;;;;;;0.50;0.50;;;;;;;16.32;100.00;99844.53;5000911;28;20046;-90
2023/06/07 01:29:12;;;;;;;0.30;0.30;;;;;;;16.39;100.00;99846.94;5002785;28;20048;-90
2023/06/07 01:31:38;;;;;;;1.58;1.48;;;;;;;16.40;100.00;99851.28;5008484;28;20456;-90
2023/06/07 01:34:04;;;;;;;0.35;0.30;;;;;;;16.45;100.00;99863.84;5015111;28;20030;-90
2023/06/07 01:36:31;;;;;;;0.55;0.35;;;;;;;16.33;100.00;99846.06;4959824;28;20049;-91
2023/06/07 01:38:59;;;;;;;0.28;0.28;;;;;;;16.34;100.00;99853.19;5004840;28;20046;-90
2023/06/07 01:41:27;;;;;;;0.20;0.20;;;;;;;16.40;100.00;99862.50;4992024;28;20141;-90
2023/06/07 01:43:52;;;;;;;0.38;0.38;;;;;;;16.40;100.00;99856.88;5000087;28;20045;-90
2023/06/07 01:46:18;;;;;;;0.98;0.98;;;;;;;16.41;100.00;99852.84;4991576;28;20092;-90
2023/06/07 01:48:44;;;;;;;0.68;0.68;;;;;;;16.37;100.00;99851.47;4991759;28;20505;-90
2023/06/07 01:51:09;;;;;;;0.57;0.57;;;;;;;16.37;100.00;99846.66;5008675;28;20488;-91
2023/06/07 01:53:35;;;;;;;0.45;0.45;;;;;;;16.32;100.00;99839.69;5006840;28;20552;-91
2023/06/07 01:56:10;;;;;;;0.13;0.13;;;;;;;16.30;100.00;99841.41;4991185;28;20597;-91
2023/06/07 01:59:01;;;;;;;0.45;0.32;;;;;;;16.38;100.00;99850.97;4979254;28;20088;-91
2023/06/07 02:01:35;;;;;;;0.40;0.40;;;;;;;16.36;100.00;99850.72;4965324;28;20459;-90
2023/06/07 02:04:02;;;;;;;0.65;0.65;;;;;;;16.40;100.00;99851.28;4985834;28;20557;-91
2023/06/07 02:06:32;;;;;;;0.77;0.77;;;;;;;16.39;100.00;99851.75;4991403;28;20053;-91
2023/06/07 02:09:02;;;;;;;4.88;1.30;;;;;;;16.27;100.00;99837.56;4993252;28;20034;-90
2023/06/07 02:11:30;;;;;;;0.35;0.25;;;;;;;16.34;100.00;99847.59;4989832;28;20073;-90
2023/06/07 02:13:55;;;;;;;0.32;0.32;;;;;;;16.30;100.00;99858.22;4974410;28;20034;-90
2023/06/07 02:16:40;;;;;;;0.40;0.40;;;;;;;16.16;100.00;99839.38;4973395;28;20032;-90
2023/06/07 02:19:09;;;;;;;0.65;0.65;;;;;;;16.13;100.00;99837.56;4991245;28;20129;-90
2023/06/07 02:21:48;;;;;;;0.93;0.88;;;;;;;16.11;100.00;99837.25;4996930;28;20092;-90
2023/06/07 02:24:13;;;;;;;1.35;0.65;;;;;;;16.17;100.00;99840.94;4994046;28;20029;-90
2023/06/07 02:26:40;;;;;;;1.48;0.82;;;;;;;16.13;100.00;99841.13;5005860;28;20378;-90
2023/06/07 02:29:05;;;;;;;0.40;0.40;;;;;;;16.15;100.00;99846.22;4974564;28;20066;-91
2023/06/07 02:31:31;;;;;;;0.63;0.63;;;;;;;16.10;100.00;99835.69;4990822;28;20072;-90
2023/06/07 02:33:56;;;;;;;1.13;1.02;;;;;;;16.11;100.00;99837.25;4991038;28;20048;-90
2023/06/07 02:36:23;;;;;;;0.55;0.55;;;;;;;16.13;100.00;99838.34;4989984;28;20029;-91
2023/06/07 02:38:48;;;;;;;0.57;0.57;;;;;;;16.15;100.00;99830.22;4975143;28;20048;-90
2023/06/07 02:41:15;;;;;;;0.77;0.73;;;;;;;16.19;100.00;99842.00;4971709;28;20030;-89
2023/06/07 02:43:42;;;;;;;0.63;0.63;;;;;;;16.22;100.00;99840.25;4985600;28;20118;-90
2023/06/07 02:46:07;;;;;;;1.27;1.17;;;;;;;16.16;100.00;99839.38;4973634;28;20441;-91
2023/06/07 02:48:33;;;;;;;0.50;0.50;;;;;;;16.19;100.00;99846.81;4984760;28;20030;-90
2023/06/07 02:51:00;;;;;;;2.65;1.05;;;;;;;16.23;100.00;99839.00;5006716;28;20033;-89
2023/06/07 02:53:26;;;;;;;0.43;0.43;;;;;;;16.21;100.00;99822.72;4990930;28;20045;-90
2023/06/07 02:55:52;;;;;;;0.30;0.30;;;;;;;16.33;100.00;99846.06;4980564;28;20123;-90
2023/06/07 02:58:18;;;;;;;2.15;1.23;;;;;;;16.28;100.00;99829.94;4989252;28;20061;-90
2023/06/07 03:00:48;;;;;;;2.92;1.48;;;;;;;16.39;100.00;99841.34;4987526;28;20030;-89
2023/06/07 03:03:14;;;;;;;0.30;0.30;;;;;;;16.41;100.00;99840.88;4999065;28;20490;-90
2023/06/07 03:05:49;;;;;;;0.50;0.50;;;;;;;16.43;100.00;99850.31;4956577;28;20084;-90
2023/06/07 03:08:16;;;;;;;0.40;0.40;;;;;;;16.41;100.00;99847.25;4975402;28;20053;-90
2023/06/07 03:10:43;;;;;;;0.52;0.52;;;;;;;16.36;100.00;99833.91;5005797;28;20084;-90
2023/06/07 03:13:12;;;;;;;0.80;0.80;;;;;;;16.41;100.00;99850.03;4975446;28;20068;-90
2023/06/07 03:15:39;;;;;;;3.83;1.25;;;;;;;16.36;100.00;99850.72;4967722;28;20117;-90
2023/06/07 03:18:05;;;;;;;1.08;0.98;;;;;;;16.40;100.00;99851.28;4989298;28;20160;-91
2023/06/07 03:20:34;;;;;;;0.52;0.52;;;;;;;16.34;100.00;99853.19;4989627;28;20464;-90
2023/06/07 03:23:06;;;;;;;0.22;0.22;;;;;;;16.30;100.00;99849.81;4992472;28;20085;-90
2023/06/07 03:25:33;;;;;;;0.28;0.28;;;;;;;16.39;100.00;99858.13;4990047;28;20042;-89
2023/06/07 03:27:58;;;;;;;0.10;0.10;;;;;;;16.44;100.00;99863.06;4986993;28;20452;-90
2023/06/07 03:30:32;;;;;;;1.75;1.27;;;;;;;16.46;100.00;99854.94;4995057;28;20033;-90
2023/06/07 03:32:57;;;;;;;0.05;0.05;;;;;;;16.48;100.00;99849.66;5011732;28;20124;-90
2023/06/07 03:35:23;;;;;;;0.35;0.35;;;;;;;16.50;100.00;99861.13;4994243;28;20037;-90
2023/06/07 03:37:49;;;;;;;0.57;0.57;;;;;;;16.44;100.00;99851.88;4991115;28;20493;-90
2023/06/07 03:40:19;;;;;;;0.68;0.68;;;;;;;16.30;100.00;99847.78;4989806;28;20049;-90
2023/06/07 03:42:45;;;;;;;1.15;1.10;;;;;;;16.43;100.00;99858.72;5002777;28;20444;-90
2023/06/07 03:45:11;;;;;;;0.50;0.50;;;;;;;16.46;100.00;99865.41;4990622;28;20302;-90
2023/06/07 03:47:37;;;;;;;0.30;0.30;;;;;;;16.42;100.00;99854.38;5013857;28;20045;-91
2023/06/07 03:50:03;;;;;;;0.68;0.68;;;;;;;16.36;100.00;99853.50;5017170;28;20065;-90
2023/06/07 03:52:33;;;;;;;0.35;0.25;;;;;;;16.39;100.00;99857.34;4996914;28;20072;-90
2023/06/07 03:54:58;;;;;;;0.68;0.68;;;;;;;16.43;100.00;99872.72;5012201;28;20033;-92
2023/06/07 03:57:25;;;;;;;0.35;0.35;;;;;;;16.32;100.00;99850.13;4981865;28;20501;-94
2023/06/07 03:59:56;;;;;;;0.90;0.82;;;;;;;16.25;100.00;99844.91;4985209;28;20087;-94
2023/06/07 04:02:54;;;;;;;1.65;1.02;;;;;;;16.16;100.00;99831.00;4993660;28;20041;-93
2023/06/07 04:05:20;;;;;;;0.90;0.75;;;;;;;16.41;100.00;99861.25;4971587;28;20047;-93
2023/06/07 04:07:47;;;;;;;0.52;0.52;;;;;;;16.50;100.00;99871.59;4983808;28;20418;-93
2023/06/07 04:10:13;;;;;;;0.47;0.47;;;;;;;16.45;100.00;99856.22;4977430;28;20037;-94
2023/06/07 04:12:44;;;;;;;0.73;0.57;;;;;;;16.43;100.00;99844.72;4968433;28;20104;-93
2023/06/07 04:15:11;;;;;;;0.10;0.10;;;;;;;16.58;100.00;99867.19;4976929;28;20072;-94
2023/06/07 04:17:38;;;;;;;0.50;0.47;;;;;;;16.54;100.00;99880.56;4990533;28;20065;-93
2023/06/07 04:20:05;;;;;;;0.57;0.57;;;;;;;16.36;100.00;99841.53;4980765;28;20421;-94
2023/06/07 04:22:31;;;;;;;0.35;0.35;;;;;;;16.55;100.00;99876.50;4993704;28;20053;-94
2023/06/07 04:24:58;;;;;;;0.20;0.20;;;;;;;16.52;100.00;99858.63;4999524;28;20350;-93
2023/06/07 04:27:29;;;;;;;1.67;1.17;;;;;;;16.34;100.00;99842.78;4975607;28;20386;-92
2023/06/07 04:29:56;;;;;;;0.68;0.68;;;;;;;16.54;100.00;99870.13;4961692;28;20033;-92
2023/06/07 04:32:22;;;;;;;1.15;0.95;;;;;;;16.50;100.00;99883.53;4993164;28;20042;-93
2023/06/07 04:34:52;;;;;;;0.43;0.40;;;;;;;16.39;100.00;99871.34;4973226;28;20128;-94
2023/06/07 04:37:19;;;;;;;0.82;0.82;;;;;;;16.40;100.00;99875.72;4989071;28;20490;-94
2023/06/07 04:39:48;;;;;;;0.20;0.20;;;;;;;16.36;100.00;99883.53;4993553;28;20575;-92
2023/06/07 04:42:19;;;;;;;0.70;0.70;;;;;;;16.29;100.00;99873.47;4970287;28;20081;-92
2023/06/07 04:44:45;;;;;;;0.52;0.52;;;;;;;16.30;100.00;99875.00;4994443;28;20044;-92
2023/06/07 04:47:17;;;;;;;0.95;0.88;;;;;;;16.31;100.00;99876.56;4977272;28;20040;-90
2023/06/07 04:49:43;;;;;;;0.20;0.20;;;;;;;16.36;100.00;99889.91;4993908;28;20113;-91
2023/06/07 04:52:12;;;;;;;1.60;1.50;;;;;;;16.38;100.00;99875.44;5007855;28;20034;-89
2023/06/07 04:54:39;;;;;;;0.73;0.73;;;;;;;16.35;100.00;99871.56;5004412;28;20434;-91
2023/06/07 04:57:08;;;;;;;0.77;0.77;;;;;;;16.42;100.00;99887.22;4957637;28;20781;-92
2023/06/07 04:59:42;;;;;;;0.50;0.50;;;;;;;16.36;100.00;99875.13;4967416;28;20461;-91
2023/06/07 05:02:11;;;;;;;0.88;0.75;;;;;;;16.27;100.00;99871.16;5005048;28;20070;-92
2023/06/07 05:04:38;;;;;;;0.98;0.95;;;;;;;16.25;100.00;99864.50;4969232;28;20084;-92
2023/06/07 05:07:06;;;;;;;0.50;0.45;;;;;;;16.31;100.00;99870.97;4981387;28;20058;-92
2023/06/07 05:09:35;;;;;;;0.10;0.10;;;;;;;16.39;100.00;99882.56;4951685;28;20256;-93
2023/06/07 05:12:04;;;;;;;1.55;1.45;;;;;;;16.36;100.00;99883.53;4990838;28;20030;-92
2023/06/07 05:14:31;;;;;;;2.00;1.65;;;;;;;16.22;100.00;99857.03;4957654;28;20040;-91
2023/06/07 05:16:59;;;;;;;1.52;1.42;;;;;;;16.32;100.00;99872.53;4959431;28;20113;-93
2023/06/07 05:19:29;;;;;;;0.50;0.50;;;;;;;16.24;100.00;99868.53;5019744;28;20041;-95
2023/06/07 05:22:07;;;;;;;0.10;0.10;;;;;;;16.27;100.00;99864.78;4999190;28;20459;-95
2023/06/07 05:24:33;;;;;;;0.88;0.88;;;;;;;16.40;100.00;99876.47;5001329;28;20073;-93
2023/06/07 05:26:59;;;;;;;1.02;0.50;;;;;;;16.45;100.00;99881.41;5001455;28;20631;-94
2023/06/07 05:29:28;;;;;;;0.93;0.93;;;;;;;16.41;100.00;99872.44;4970569;28;20030;-94
2023/06/07 06:53:37;;;;;;;1.05;0.75;;;;;;;18.36;100.00;99889.41;4994534;28;20073;-93
2023/06/07 06:56:02;;;;;;;1.60;1.05;;;;;;;18.57;100.00;99914.16;4991227;28;20061;-92
2023/06/07 06:58:28;;;;;;;0.38;0.38;;;;;;;18.56;100.00;99901.38;4977140;28;20398;-90
2023/06/07 07:00:54;;;;;;;1.17;0.40;;;;;;;18.72;100.00;99930.16;4983257;28;20049;-89
2023/06/07 07:03:21;;;;;;;1.38;1.27;;;;;;;18.62;100.00;99905.00;4983321;28;20480;-93
2023/06/07 07:05:46;;;;;;;0.25;0.25;;;;;;;18.85;100.00;99924.88;4978537;28;20030;-92
2023/06/07 07:08:12;;;;;;;0.45;0.45;;;;;;;19.06;100.00;99929.19;4968837;28;20073;-90
2023/06/07 07:10:37;;;;;;;1.42;1.33;;;;;;;19.12;100.00;99907.50;4998639;28;20498;-90
2023/06/07 07:13:03;;;;;;;0.90;0.90;;;;;;;19.05;100.00;99899.50;4993419;28;20026;-90
2023/06/07 07:15:29;;;;;;;0.60;0.50;;;;;;;19.25;100.00;99907.09;4972825;28;20472;-91
2023/06/07 07:17:54;;;;;;;0.30;0.30;;;;;;;19.49;100.00;99913.94;4971372;28;20056;-91
2023/06/07 07:20:20;;;;;;;0.35;0.35;;;;;;;19.70;100.00;99916.63;4967376;28;20399;-91
2023/06/07 07:22:46;;;;;;;0.95;0.95;;;;;;;19.84;100.00;99908.03;4979019;28;20038;-91
2023/06/07 07:25:12;;;;;;;0.50;0.50;;;;;;;20.16;100.00;99897.41;4966048;28;20030;-90
2023/06/07 07:27:38;;;;;;;2.00;1.23;;;;;;;20.66;100.00;99922.94;4999660;28;20192;-92
2023/06/07 07:30:04;;;;;;;0.68;0.68;;;;;;;20.91;100.00;99926.81;4971439;28;20563;-91
2023/06/07 07:32:30;;;;;;;0.60;0.60;;;;;;;20.95;100.00;99904.78;4989394;28;20021;-91
2023/06/07 07:34:56;;;;;;;0.30;0.30;;;;;;;21.35;100.00;99917.66;4966972;28;20034;-91
2023/06/07 07:37:22;;;;;;;0.30;0.30;;;;;;;21.17;100.00;99890.72;4970691;28;20404;-92
2023/06/07 07:39:47;;;;;;;0.47;0.47;;;;;;;21.32;100.00;99902.50;4955210;28;20038;-91
2023/06/07 07:42:14;;;;;;;0.10;0.10;;;;;;;21.64;100.00;99917.06;4986695;28;20034;-91
2023/06/07 07:44:40;;;;;;;0.20;0.20;;;;;;;21.69;100.00;99909.88;4980109;28;20114;-91
2023/06/07 07:47:09;;;;;;;0.10;0.10;;;;;;;22.09;100.00;99883.84;4993038;28;20041;-90
2023/06/07 07:49:35;;;;;;;1.00;0.90;;;;;;;22.57;100.00;99879.72;4996619;28;20045;-92
2023/06/07 07:52:01;;;;;;;0.52;0.47;;;;;;;22.71;100.00;99924.66;4980023;28;20054;-90
2023/06/07 07:54:27;;;;;;;0.82;0.80;;;;;;;22.57;100.00;99908.75;5006763;28;20034;-90
2023/06/07 07:56:53;;;;;;;0.25;0.25;;;;;;;21.87;100.00;99875.44;4997286;28;20448;-90
2023/06/07 07:59:18;;;;;;;5.07;2.08;;;;;;;21.39;100.00;99873.00;4990632;28;20068;-90
2023/06/07 08:01:45;;;;;;;0.17;0.17;;;;;;;21.43;100.00;99907.38;4990617;28;20452;-90
2023/06/07 08:04:11;;;;;;;0.63;0.55;;;;;;;21.18;100.00;99892.25;5008173;28;20022;-90
2023/06/07 08:06:38;;;;;;;0.70;0.70;;;;;;;21.17;100.00;99899.19;5003119;28;20037;-89
2023/06/07 08:09:06;;;;;;;0.55;0.55;;;;;;;21.18;100.00;99883.81;5009273;28;20418;-90
2023/06/07 08:11:31;;;;;;;0.30;0.30;;;;;;;21.21;100.00;99887.63;5024934;28;20061;-90
2023/06/07 08:13:57;;;;;;;1.45;0.75;;;;;;;21.01;100.00;99860.44;5009337;28;20030;-91
2023/06/07 08:16:23;;;;;;;1.08;1.05;;;;;;;21.27;100.00;99899.69;5028531;28;20038;-91
2023/06/07 08:18:55;;;;;;;0.20;0.20;;;;;;;21.20;100.00;99920.72;5011041;28;20026;-90
2023/06/07 08:21:21;;;;;;;0.22;0.22;;;;;;;20.90;100.00;99897.09;5003118;28;20030;-91
2023/06/07 08:23:47;;;;;;;0.65;0.65;;;;;;;20.57;100.00;99869.66;5011546;28;20033;-96
2023/06/07 08:26:13;;;;;;;0.73;0.65;;;;;;;20.83;100.00;99906.03;4996497;28;20082;-95
2023/06/07 08:28:38;;;;;;;0.77;0.63;;;;;;;20.75;100.00;99876.81;4988943;28;20050;-95
2023/06/07 08:31:05;;;;;;;2.33;0.47;;;;;;;20.88;100.00;99879.91;4980411;28;20041;-96
2023/06/07 08:33:30;;;;;;;0.60;0.57;;;;;;;21.20;100.00;99920.72;5000528;28;20643;-94
2023/06/07 08:35:56;;;;;;;0.50;0.50;;;;;;;21.05;100.00;99869.41;4990167;28;20064;-95
2023/06/07 08:38:21;;;;;;;0.85;0.60;;;;;;;21.08;100.00;99861.97;4985782;28;20159;-96
2023/06/07 08:40:47;;;;;;;0.40;0.30;;;;;;;21.32;100.00;99905.31;5017094;28;20033;-94
2023/06/07 08:43:13;;;;;;;0.40;0.40;;;;;;;21.34;100.00;99894.31;5005328;28;20030;-93
2023/06/07 08:45:39;;;;;;;0.32;0.30;;;;;;;21.64;100.00;99927.59;4981696;28;20045;-94
2023/06/07 08:48:12;;;;;;;0.10;0.10;;;;;;;21.59;100.00;99928.38;4989308;28;20467;-96
2023/06/07 08:50:38;;;;;;;0.38;0.38;;;;;;;21.68;100.00;99892.16;4981822;28;20040;-96
2023/06/07 08:53:15;;;;;;;0.28;0.28;;;;;;;21.63;100.00;99878.09;5005087;28;20042;-95
2023/06/07 08:55:42;;;;;;;0.45;0.28;;;;;;;21.66;100.00;99899.63;5000178;28;20063;-96
2023/06/07 08:58:08;;;;;;;0.25;0.25;;;;;;;21.50;100.00;99886.31;5017205;28;20029;-96
2023/06/07 09:00:35;;;;;;;0.70;0.47;;;;;;;21.53;100.00;99896.56;4983827;28;20045;-96
2023/06/07 09:03:01;;;;;;;0.98;0.98;;;;;;;21.31;100.00;99886.09;5003078;28;20148;-96
2023/06/07 09:05:26;;;;;;;0.65;0.60;;;;;;;21.43;100.00;99920.72;4996045;28;20385;-96
2023/06/07 09:07:55;;;;;;;0.30;0.30;;;;;;;21.09;100.00;99886.06;4989406;28;20041;-95
2023/06/07 09:10:22;;;;;;;0.88;0.47;;;;;;;21.22;100.00;99915.34;4998383;28;20038;-96
2023/06/07 09:12:48;;;;;;;0.55;0.38;;;;;;;21.01;100.00;99885.03;5012547;28;20067;-96
2023/06/07 09:15:18;;;;;;;0.63;0.45;;;;;;;21.22;100.00;99911.75;5001002;28;20069;-96
2023/06/07 09:17:56;;;;;;;1.17;0.40;;;;;;;21.29;100.00;99919.69;4987727;28;20057;-96
2023/06/07 09:20:24;;;;;;;0.30;0.30;;;;;;;20.89;100.00;99890.69;4992997;28;20059;-90
2023/06/07 09:23:01;;;;;;;0.60;0.40;;;;;;;21.23;100.00;99930.22;4987746;28;20208;-90
2023/06/07 09:25:27;;;;;;;0.15;0.15;;;;;;;20.73;100.00;99873.75;5007502;28;20050;-90
2023/06/07 09:27:54;;;;;;;1.00;0.43;;;;;;;20.78;100.00;99879.41;5020238;28;20041;-90
2023/06/07 09:30:21;;;;;;;0.40;0.40;;;;;;;20.73;100.00;99891.44;5010112;28;20061;-90
2023/06/07 09:32:46;;;;;;;1.77;1.08;;;;;;;20.85;100.00;99900.69;4996840;28;20103;-90
2023/06/07 09:35:12;;;;;;;0.30;0.30;;;;;;;21.04;100.00;99924.25;5026653;28;20026;-91
2023/06/07 09:37:48;;;;;;;0.65;0.52;;;;;;;20.75;100.00;99893.72;5018034;28;20057;-96
2023/06/07 09:40:15;;;;;;;0.70;0.45;;;;;;;21.05;100.00;99896.84;4982140;28;20153;-96
2023/06/07 09:42:43;;;;;;;0.10;0.10;;;;;;;20.93;100.00;99879.16;4989758;28;20033;-96
2023/06/07 09:45:17;;;;;;;0.38;0.28;;;;;;;21.31;100.00;99920.69;4975042;28;20033;-95
2023/06/07 09:47:43;;;;;;;0.52;0.45;;;;;;;21.38;100.00;99894.03;5004041;28;20042;-96
2023/06/07 09:50:13;;;;;;;0.47;0.47;;;;;;;21.63;100.00;99892.19;4993625;28;20082;-96
2023/06/07 09:52:42;;;;;;;0.17;0.17;;;;;;;21.50;100.00;99875.03;4994012;28;20045;-96
2023/06/07 09:55:09;;;;;;;0.30;0.30;;;;;;;21.27;100.00;99868.66;5010251;28;20195;-96
2023/06/07 09:57:39;;;;;;;0.80;0.60;;;;;;;21.54;100.00;99898.09;5026457;28;20041;-96
2023/06/07 10:00:16;;;;;;;0.32;0.32;;;;;;;21.53;100.00;99885.28;5016481;28;20029;-95
2023/06/07 10:02:44;;;;;;;0.77;0.45;;;;;;;21.55;100.00;99882.72;5017703;28;20021;-96
2023/06/07 10:05:14;;;;;;;0.38;0.38;;;;;;;21.57;100.00;99877.31;5011801;28;20042;-91
2023/06/07 10:07:43;;;;;;;1.35;0.98;;;;;;;21.86;100.00;99919.84;4999439;28;20484;-90
2023/06/07 10:10:11;;;;;;;0.20;0.20;;;;;;;21.87;100.00;99912.16;5009358;28;20036;-90
2023/06/07 10:12:40;;;;;;;1.25;0.88;;;;;;;21.80;100.00;99861.84;5028654;28;20045;-90
2023/06/07 10:15:11;;;;;;;1.48;1.25;;;;;;;22.11;100.00;99909.53;4976131;28;20034;-91
2023/06/07 10:17:42;;;;;;;0.20;0.20;;;;;;;22.43;100.00;99917.59;4985968;28;20041;-91
2023/06/07 10:20:12;;;;;;;0.98;0.55;;;;;;;22.48;100.00;99906.28;5001705;28;20462;-90
2023/06/07 10:22:39;;;;;;;0.43;0.43;;;;;;;22.32;100.00;99865.47;5021884;28;20026;-90
2023/06/07 10:25:09;;;;;;;0.85;0.60;;;;;;;22.81;100.00;99893.97;4996291;28;20038;-90
2023/06/07 10:27:40;;;;;;;0.30;0.30;;;;;;;23.16;100.00;99896.81;5026611;28;20372;-90
2023/06/07 10:30:09;;;;;;;0.70;0.70;;;;;;;23.23;100.00;99904.72;5014702;28;20044;-90
2023/06/07 10:32:38;;;;;;;0.57;0.57;;;;;;;22.88;100.00;99861.56;5004538;28;20036;-91
2023/06/07 10:35:07;;;;;;;0.38;0.38;;;;;;;22.87;100.00;99862.84;5003498;28;20056;-90
2023/06/07 10:37:35;;;;;;;0.40;0.25;;;;;;;22.72;100.00;99857.56;4993406;28;20053;-91
2023/06/07 10:40:10;;;;;;;1.13;1.02;;;;;;;23.12;100.00;99887.06;4968461;28;20398;-90
2023/06/07 10:42:37;;;;;;;0.73;0.73;;;;;;;23.44;100.00;99895.81;5007038;28;20442;-90
2023/06/07 10:45:04;;;;;;;0.20;0.20;;;;;;;23.21;100.00;99859.19;5007782;28;20619;-90
2023/06/07 10:47:30;;;;;;;1.55;1.25;;;;;;;23.03;100.00;99854.22;5015089;28;20033;-91
2023/06/07 10:49:56;;;;;;;0.65;0.25;;;;;;;23.15;100.00;99850.00;4990283;28;20029;-90
2023/06/07 10:52:23;;;;;;;0.65;0.65;;;;;;;23.37;100.00;99879.38;5010348;28;20050;-90
2023/06/07 10:54:49;;;;;;;0.30;0.30;;;;;;;23.25;100.00;99882.31;5006988;28;20056;-90
2023/06/07 10:57:30;;;;;;;2.58;1.35;;;;;;;22.76;100.00;99869.38;4988913;28;20030;-91
2023/06/07 11:00:35;;;;;;;0.43;0.43;;;;;;;22.54;100.00;99853.28;4991929;28;20122;-90
2023/06/07 11:03:09;;;;;;;0.55;0.30;;;;;;;22.54;100.00;99887.19;4997886;28;20056;-90
2023/06/07 11:05:53;;;;;;;0.22;0.22;;;;;;;22.58;100.00;99875.63;4975272;28;20033;-90
2023/06/07 11:08:27;;;;;;;0.60;0.60;;;;;;;22.72;100.00;99868.88;4990880;28;20068;-91
2023/06/07 11:10:59;;;;;;;0.65;0.63;;;;;;;23.15;100.00;99892.44;4999836;28;20084;-91
2023/06/07 11:13:44;;;;;;;0.32;0.32;;;;;;;23.56;100.00;99885.91;4997196;28;20405;-90
2023/06/07 11:16:22;;;;;;;0.75;0.40;;;;;;;23.77;100.00;99892.63;5019887;28;20037;-90
2023/06/07 11:18:55;;;;;;;0.80;0.70;;;;;;;23.71;100.00;99849.44;5014696;28;20430;-90
2023/06/07 11:21:26;;;;;;;0.32;0.32;;;;;;;24.13;100.00;99896.84;5018806;28;20113;-91
2023/06/07 11:24:13;;;;;;;1.15;0.75;;;;;;;23.60;100.00;99861.66;4994156;28;20453;-90
2023/06/07 11:26:50;;;;;;;0.75;0.47;;;;;;;24.00;100.00;99893.91;5015957;28;20041;-92
2023/06/07 11:29:21;;;;;;;0.50;0.50;;;;;;;23.89;100.00;99847.94;4994527;28;20042;-90
2023/06/07 11:32:09;;;;;;;0.50;0.50;;;;;;;24.31;100.00;99888.91;4990555;28;20125;-90
2023/06/07 11:34:35;;;;;;;0.43;0.40;;;;;;;24.37;100.00;99870.53;4984489;28;20048;-89
2023/06/07 11:37:12;;;;;;;0.30;0.30;;;;;;;24.31;100.00;99857.72;4995618;28;20033;-89
2023/06/07 11:39:37;;;;;;;0.15;0.15;;;;;;;24.74;100.00;99871.78;5003573;28;20042;-90
2023/06/07 11:42:03;;;;;;;0.30;0.30;;;;;;;25.48;100.00;99857.38;5015717;28;20029;-90
2023/06/07 11:44:29;;;;;;;0.30;0.30;;;;;;;26.03;100.00;99842.63;5013359;28;20041;-90
2023/06/07 11:46:55;;;;;;;0.00;0.00;;;;;;;26.25;91.95;99859.22;5026097;28;20029;-90
2023/06/07 11:49:23;;;;;;;1.13;1.08;;;;;;;26.32;88.87;99881.31;5026058;28;20486;-90
2023/06/07 11:51:49;;;;;;;0.88;0.88;;;;;;;26.22;88.98;99872.47;4995236;28;20056;-90
2023/06/07 11:54:15;;;;;;;0.43;0.43;;;;;;;26.15;87.53;99872.34;4993950;28;20038;-90
2023/06/07 11:56:42;;;;;;;0.60;0.60;;;;;;;25.07;87.75;99874.13;5029892;28;20025;-91
2023/06/07 11:59:09;;;;;;;0.40;0.40;;;;;;;24.47;94.35;99873.72;5016836;28;20147;-90
2023/06/07 12:01:39;;;;;;;0.88;0.80;;;;;;;23.62;100.00;99873.22;5004245;28;20112;-91
2023/06/07 12:04:09;;;;;;;0.35;0.35;;;;;;;23.40;100.00;99875.50;4982018;28;20117;-91
2023/06/07 12:06:34;;;;;;;0.80;0.32;;;;;;;22.68;100.00;99848.56;4995289;28;20415;-90
2023/06/07 12:09:00;;;;;;;0.32;0.32;;;;;;;22.33;100.00;99886.81;5011406;28;20037;-91
2023/06/07 12:11:29;;;;;;;0.20;0.20;;;;;;;21.56;100.00;99853.97;4995921;28;20041;-95
2023/06/07 12:33:00;;;;;;;0.63;0.63;;;;;;;21.20;100.00;99850.19;5074608;23;20058;-96
2023/06/07 12:35:37;;;;;;;1.02;0.95;;;;;;;21.17;100.00;99831.47;5040480;28;20140;-95
2023/06/07 12:38:06;;;;;;;2.40;1.10;;;;;;;21.43;100.00;99831.19;5037170;28;20072;-96
2023/06/07 12:40:34;;;;;;;0.38;0.30;;;;;;;21.76;100.00;99821.81;5032329;28;20029;-96
2023/06/07 12:43:02;;;;;;;0.75;0.75;;;;;;;21.99;100.00;99828.97;5060322;28;20051;-96
2023/06/07 12:50:48;;;;;;;0.47;0.47;;;;;;;22.63;100.00;99894.59;4988070;28;20110;-89
2023/06/07 12:53:13;;;;;;;0.57;0.38;;;;;;;22.68;100.00;99874.81;4975513;28;20395;-88
2023/06/07 12:55:40;;;;;;;0.30;0.30;;;;;;;22.88;100.00;99867.22;4953139;28;20031;-89
2023/06/07 12:58:05;;;;;;;0.30;0.30;;;;;;;22.88;100.00;99887.78;4966491;28;20116;-88
2023/06/07 13:00:31;;;;;;;1.13;1.02;;;;;;;23.01;100.00;99879.44;4953937;28;20634;-89
2023/06/07 13:02:57;;;;;;;0.45;0.45;;;;;;;23.06;100.00;99858.81;4973347;28;20063;-89
2023/06/07 13:05:23;;;;;;;0.20;0.20;;;;;;;23.03;100.00;99842.91;4936017;28;20062;-89
2023/06/07 13:07:49;;;;;;;0.22;0.22;;;;;;;23.13;100.00;99857.50;4949206;28;20039;-88
2023/06/07 13:10:14;;;;;;;0.05;0.05;;;;;;;22.65;100.00;99824.16;4957739;28;20038;-88
2023/06/07 13:12:41;;;;;;;0.10;0.10;;;;;;;22.62;100.00;99845.78;4942946;28;20117;-89
2023/06/07 13:15:07;;;;;;;0.40;0.40;;;;;;;22.54;100.00;99839.16;4932684;28;20573;-88